Time;durP1;ratioP1;P1;durP2;ratioP2;P2;SDS_P1;SDS_P2;PMS_P1;PMS_P2;Temp;Humidity;BMP_temperature;BMP_pressure;BME280_temperature;BME280_humidity;BME280_pressure;Samples;Min_cycle;Max_cycle;Signal;HPM_P1;HPM_P2
2023/12/05 00:00:18;;;;;;;11.23;7.30;;;;;;;-0.17;63.17;100336.78;5001418;28;97153;-72
2023/12/05 00:02:43;;;;;;;11.60;7.33;;;;;;;-0.14;63.10;100327.75;5003847;28;97193;-73
2023/12/05 00:05:09;;;;;;;12.30;7.83;;;;;;;-0.14;63.21;100333.94;5002424;28;98484;-73
2023/12/05 00:07:34;;;;;;;10.97;7.00;;;;;;;-0.11;62.97;100329.53;5001879;28;101521;-74
2023/12/05 00:10:00;;;;;;;10.10;7.10;;;;;;;-0.13;63.03;100330.00;5003053;28;97144;-73
2023/12/05 00:12:26;;;;;;;11.27;6.93;;;;;;;-0.10;62.89;100325.63;5003002;28;98149;-73
2023/12/05 00:14:51;;;;;;;11.67;7.30;;;;;;;-0.08;63.08;100323.22;5000949;28;100241;-73
2023/12/05 00:17:17;;;;;;;11.80;7.47;;;;;;;-0.06;63.26;100320.78;5003648;28;96942;-72
2023/12/05 00:19:42;;;;;;;17.40;7.40;;;;;;;-0.11;63.12;100322.16;5002758;28;97369;-73
2023/12/05 00:22:07;;;;;;;11.80;7.07;;;;;;;-0.11;63.24;100315.94;5004073;28;97052;-73
2023/12/05 00:24:33;;;;;;;10.93;7.53;;;;;;;-0.16;63.21;100309.13;5002133;28;99720;-73
2023/12/05 00:26:58;;;;;;;12.73;7.57;;;;;;;-0.11;63.30;100311.28;5004595;28;97125;-73
2023/12/05 00:29:23;;;;;;;11.67;6.70;;;;;;;-0.13;63.26;100312.91;5005314;28;97071;-73
2023/12/05 00:31:49;;;;;;;13.90;8.30;;;;;;;-0.14;63.33;100312.19;5007227;28;97138;-73
2023/12/05 00:34:14;;;;;;;11.47;8.10;;;;;;;-0.16;63.14;100303.69;5004924;28;112573;-72
2023/12/05 00:36:39;;;;;;;13.07;8.23;;;;;;;-0.16;63.19;100297.53;5005452;28;103993;-73
2023/12/05 00:39:04;;;;;;;12.23;8.47;;;;;;;-0.17;63.35;100306.88;5005306;28;97215;-73
2023/12/05 00:41:30;;;;;;;13.70;8.77;;;;;;;-0.17;63.46;100306.88;5006190;28;97514;-73
2023/12/05 00:43:55;;;;;;;12.63;8.37;;;;;;;-0.15;63.37;100293.59;5006076;28;99378;-73
2023/12/05 00:46:22;;;;;;;15.00;9.17;;;;;;;-0.18;63.43;100289.06;5005382;28;103847;-73
2023/12/05 00:48:47;;;;;;;13.77;8.90;;;;;;;-0.16;63.39;100295.53;5005132;28;97435;-73
2023/12/05 00:51:13;;;;;;;12.43;8.10;;;;;;;-0.19;63.43;100282.88;5003747;28;97251;-72
2023/12/05 00:53:38;;;;;;;14.70;9.10;;;;;;;-0.17;63.24;100291.34;5003796;28;99575;-73
2023/12/05 00:56:06;;;;;;;14.90;8.50;;;;;;;-0.18;63.19;100286.34;5005815;28;102796;-72
2023/12/05 00:58:31;;;;;;;15.77;10.10;;;;;;;-0.20;63.33;100289.50;5004721;28;97853;-73
2023/12/05 01:00:57;;;;;;;14.47;8.73;;;;;;;-0.21;63.58;100284.53;5003207;28;106407;-73
2023/12/05 01:03:22;;;;;;;15.70;9.43;;;;;;;-0.20;63.32;100305.09;5004770;28;102194;-72
2023/12/05 01:05:47;;;;;;;13.67;8.70;;;;;;;-0.19;63.56;100282.09;5002705;28;110000;-72
2023/12/05 01:08:12;;;;;;;12.17;7.20;;;;;;;-0.19;63.58;100285.59;5004007;28;97086;-72
2023/12/05 01:10:38;;;;;;;18.30;9.47;;;;;;;-0.20;63.54;100294.22;5006182;27;97069;-72
2023/12/05 01:13:04;;;;;;;16.40;9.10;;;;;;;-0.21;63.58;100284.53;5004851;28;97704;-73
2023/12/05 01:15:29;;;;;;;17.00;10.10;;;;;;;-0.23;63.65;100281.50;5006924;28;97138;-73
2023/12/05 01:17:54;;;;;;;16.20;9.07;;;;;;;-0.27;63.83;100276.22;5004083;28;97140;-73
2023/12/05 01:20:20;;;;;;;14.57;9.20;;;;;;;-0.26;63.59;100272.28;5004148;28;97374;-72
2023/12/05 01:22:45;;;;;;;16.33;9.53;;;;;;;-0.24;63.72;100264.44;5005433;28;97541;-72
2023/12/05 01:25:11;;;;;;;18.70;9.30;;;;;;;-0.17;63.61;100271.53;5005029;28;100029;-72
2023/12/05 01:27:36;;;;;;;16.33;9.20;;;;;;;-0.17;63.67;100271.53;5005699;28;98171;-73
2023/12/05 01:30:03;;;;;;;15.07;8.80;;;;;;;-0.15;63.70;100261.72;5006011;28;97250;-73
2023/12/05 01:32:28;;;;;;;15.40;8.73;;;;;;;-0.09;63.78;100261.88;5001806;28;99505;-73
2023/12/05 01:34:53;;;;;;;15.73;9.33;;;;;;;-0.15;63.38;100269.13;5005710;28;97699;-72
2023/12/05 01:37:19;;;;;;;19.67;10.13;;;;;;;-0.18;63.63;100270.78;5005580;28;97136;-73
2023/12/05 01:39:44;;;;;;;15.17;9.07;;;;;;;-0.14;63.44;100259.78;5002846;28;97185;-73
2023/12/05 01:42:09;;;;;;;18.93;9.33;;;;;;;-0.17;63.62;100261.44;5003920;28;97459;-73
2023/12/05 01:44:34;;;;;;;15.37;9.17;;;;;;;-0.18;63.57;100261.88;5003795;28;104194;-72
2023/12/05 01:47:00;;;;;;;14.57;9.00;;;;;;;-0.21;63.76;100260.06;5005566;28;97522;-72
2023/12/05 01:49:26;;;;;;;14.40;9.27;;;;;;;-0.24;63.79;100269.09;5005027;28;97978;-73
2023/12/05 01:51:52;;;;;;;16.53;9.97;;;;;;;-0.19;63.60;100254.94;5006069;28;97085;-73
2023/12/05 01:54:18;;;;;;;16.23;10.07;;;;;;;-0.16;63.91;100270.34;5002331;28;99639;-72
2023/12/05 01:56:44;;;;;;;14.90;9.73;;;;;;;-0.16;63.75;100254.78;5006821;28;96964;-73
2023/12/05 01:59:10;;;;;;;14.00;8.77;;;;;;;-0.14;63.66;100276.09;5006168;28;97531;-73
2023/12/05 02:01:36;;;;;;;17.37;10.17;;;;;;;-0.18;63.83;100251.75;5006204;28;97262;-73
2023/12/05 02:04:02;;;;;;;18.50;10.47;;;;;;;-0.16;63.80;100254.03;5004263;28;97757;-72
2023/12/05 02:06:28;;;;;;;18.57;10.50;;;;;;;-0.16;63.69;100254.03;5003683;28;97190;-73
2023/12/05 02:08:53;;;;;;;16.40;10.10;;;;;;;-0.15;64.04;100256.28;5004890;28;96836;-72
2023/12/05 02:11:19;;;;;;;14.80;9.57;;;;;;;-0.13;63.76;100256.59;5001730;28;100696;-72
2023/12/05 02:13:44;;;;;;;18.57;11.03;;;;;;;-0.08;63.77;100245.13;5004495;28;98275;-73
2023/12/05 02:16:23;;;;;;;14.20;9.60;;;;;;;-0.09;63.68;100242.84;5005376;28;97399;-73
2023/12/05 02:19:19;;;;;;;16.23;10.20;;;;;;;-0.12;63.79;100241.03;5005802;28;97309;-73
2023/12/05 02:21:49;;;;;;;14.93;10.10;;;;;;;-0.14;63.88;100240.75;5005287;28;97919;-73
2023/12/05 02:24:25;;;;;;;18.63;10.20;;;;;;;-0.16;63.83;100233.03;5002500;28;100071;-73
2023/12/05 02:27:00;;;;;;;15.23;9.40;;;;;;;-0.16;63.84;100224.88;5005723;28;96796;-72
2023/12/05 02:29:25;;;;;;;15.83;10.40;;;;;;;-0.16;63.86;100232.28;5006592;28;97239;-72
2023/12/05 02:31:51;;;;;;;18.27;11.13;;;;;;;-0.17;63.81;100225.31;5003197;28;97625;-73
2023/12/05 02:34:16;;;;;;;20.60;10.40;;;;;;;-0.18;63.48;100223.84;5005521;28;97303;-73
2023/12/05 02:36:47;;;;;;;16.90;9.93;;;;;;;-0.16;63.88;100214.00;5005296;28;97553;-73
2023/12/05 02:39:23;;;;;;;15.63;10.33;;;;;;;-0.15;63.87;100217.47;5003874;28;97168;-73
2023/12/05 02:41:53;;;;;;;20.87;11.97;;;;;;;-0.13;63.92;100223.22;5005138;28;98775;-73
2023/12/05 02:44:21;;;;;;;15.80;9.73;;;;;;;-0.10;63.90;100219.59;5005113;28;97537;-73
2023/12/05 02:46:48;;;;;;;15.43;9.57;;;;;;;-0.13;63.77;100221.25;5004952;28;97040;-73
2023/12/05 02:49:14;;;;;;;17.57;10.47;;;;;;;-0.13;63.81;100215.06;5005647;28;97315;-73
2023/12/05 02:51:40;;;;;;;17.63;10.50;;;;;;;-0.11;63.87;100209.91;5003592;28;100654;-72
2023/12/05 02:54:06;;;;;;;16.50;10.17;;;;;;;-0.15;63.83;100210.09;5005232;28;97286;-73
2023/12/05 02:56:34;;;;;;;14.47;10.23;;;;;;;-0.15;63.95;100209.31;5004039;28;96863;-73
2023/12/05 02:58:59;;;;;;;17.20;10.30;;;;;;;-0.15;64.08;100198.44;5019291;27;98556;-73
2023/12/05 03:01:24;;;;;;;17.03;10.20;;;;;;;-0.20;64.07;100205.25;5004509;28;99279;-73
2023/12/05 03:03:50;;;;;;;19.50;10.47;;;;;;;-0.20;64.14;100204.50;5003270;28;101368;-73
2023/12/05 03:06:15;;;;;;;20.07;10.60;;;;;;;-0.22;64.16;100206.88;5005577;28;97108;-73
2023/12/05 03:08:40;;;;;;;17.80;10.30;;;;;;;-0.23;64.21;100189.09;5003174;28;97135;-73
2023/12/05 03:11:06;;;;;;;17.50;10.50;;;;;;;-0.23;64.05;100200.72;5003967;28;97614;-73
2023/12/05 03:13:32;;;;;;;13.47;9.33;;;;;;;-0.22;64.08;100198.75;5007813;28;99956;-73
2023/12/05 03:15:57;;;;;;;17.57;9.80;;;;;;;-0.23;64.19;100195.28;5007085;28;96899;-73
2023/12/05 03:18:24;;;;;;;15.93;9.80;;;;;;;-0.25;64.11;100191.50;4996859;28;97319;-72
2023/12/05 03:20:49;;;;;;;14.63;8.60;;;;;;;-0.22;64.09;100198.75;5004587;28;97346;-74
2023/12/05 03:23:18;;;;;;;19.87;11.10;;;;;;;-0.24;63.98;100193.75;5006457;28;96749;-73
2023/12/05 03:25:43;;;;;;;16.03;9.67;;;;;;;-0.21;64.04;100189.38;5002899;28;96724;-73
2023/12/05 03:28:09;;;;;;;14.00;9.83;;;;;;;-0.23;63.99;100191.81;5004916;28;97861;-73
2023/12/05 03:30:34;;;;;;;15.77;10.10;;;;;;;-0.19;64.15;100178.81;5006024;28;105548;-73
2023/12/05 03:32:59;;;;;;;17.17;10.07;;;;;;;-0.22;64.30;100187.88;5005897;28;109737;-73
2023/12/05 03:35:25;;;;;;;18.63;10.80;;;;;;;-0.24;63.94;100187.56;5002136;28;97412;-73
2023/12/05 03:37:50;;;;;;;18.53;9.97;;;;;;;-0.25;64.19;100186.84;5004257;28;96776;-73
2023/12/05 03:40:15;;;;;;;18.73;10.50;;;;;;;-0.26;64.19;100189.97;5004429;28;100072;-72
2023/12/05 03:42:40;;;;;;;15.87;10.37;;;;;;;-0.27;64.11;100196.66;5004775;28;98148;-72
2023/12/05 03:45:06;;;;;;;19.00;10.77;;;;;;;-0.25;64.33;100180.63;5004991;28;97419;-73
2023/12/05 03:47:31;;;;;;;19.10;11.13;;;;;;;-0.26;64.11;100182.59;5003643;28;97005;-72
2023/12/05 03:49:57;;;;;;;17.23;10.03;;;;;;;-0.25;64.16;100178.69;5006755;28;100182;-73
2023/12/05 03:52:22;;;;;;;16.93;10.20;;;;;;;-0.27;64.11;100172.19;5004150;28;96869;-73
2023/12/05 03:54:48;;;;;;;18.23;10.60;;;;;;;-0.26;64.31;100176.41;5001804;28;96903;-73
2023/12/05 03:57:13;;;;;;;15.87;9.77;;;;;;;-0.21;64.32;100181.22;5006408;28;97647;-73
2023/12/05 03:59:38;;;;;;;18.90;10.87;;;;;;;-0.26;64.20;100173.69;5004025;28;98538;-73
2023/12/05 04:02:03;;;;;;;18.90;10.70;;;;;;;-0.21;64.17;100175.78;5005285;28;97191;-73
2023/12/05 04:04:29;;;;;;;16.70;10.00;;;;;;;-0.24;64.22;100182.88;5004143;28;97015;-73
2023/12/05 04:06:54;;;;;;;17.67;11.00;;;;;;;-0.21;64.17;100179.28;5005566;28;96981;-72
2023/12/05 04:09:19;;;;;;;18.50;11.40;;;;;;;-0.16;64.20;100202.38;5006377;28;97546;-73
2023/12/05 04:11:45;;;;;;;18.00;10.33;;;;;;;-0.17;63.94;100181.84;5003630;28;104158;-73
2023/12/05 04:14:10;;;;;;;14.87;9.60;;;;;;;-0.18;64.36;100194.66;5008045;28;97075;-73
2023/12/05 04:16:35;;;;;;;17.77;11.13;;;;;;;-0.19;64.26;100200.56;5004418;28;97467;-73
2023/12/05 04:19:01;;;;;;;16.20;10.17;;;;;;;-0.21;64.22;100182.00;5006936;28;109482;-73
2023/12/05 04:21:26;;;;;;;18.27;10.77;;;;;;;-0.22;64.26;100182.44;5004529;28;97007;-73
2023/12/05 04:23:52;;;;;;;16.17;10.87;;;;;;;-0.22;64.30;100179.72;5006254;28;97161;-72
2023/12/05 04:26:19;;;;;;;17.03;10.60;;;;;;;-0.23;64.21;100184.41;5008911;27;97244;-73
2023/12/05 04:28:45;;;;;;;21.30;12.33;;;;;;;-0.25;64.33;100180.63;5004925;28;97330;-73
2023/12/05 04:31:11;;;;;;;18.93;10.60;;;;;;;-0.22;64.02;100177.00;5007520;28;98801;-73
2023/12/05 04:33:38;;;;;;;17.60;11.33;;;;;;;-0.20;64.33;100174.59;5003783;28;97304;-73
2023/12/05 04:36:04;;;;;;;18.27;11.43;;;;;;;-0.19;64.22;100176.09;5007621;28;97109;-73
2023/12/05 04:38:29;;;;;;;18.13;11.30;;;;;;;-0.20;64.26;100182.75;5005984;28;97959;-72
2023/12/05 04:40:55;;;;;;;18.03;11.00;;;;;;;-0.19;64.24;100173.38;5008769;28;99093;-73
2023/12/05 04:43:20;;;;;;;18.70;11.00;;;;;;;-0.22;64.09;100188.63;5007257;27;96780;-73
2023/12/05 04:45:45;;;;;;;17.93;11.17;;;;;;;-0.21;64.02;100173.06;5008063;28;97989;-73
2023/12/05 04:48:10;;;;;;;18.33;11.50;;;;;;;-0.26;64.18;100176.41;4992131;28;108933;-73
2023/12/05 04:50:36;;;;;;;17.90;11.50;;;;;;;-0.22;64.26;100166.13;5005454;28;100798;-73
2023/12/05 04:53:01;;;;;;;19.23;12.20;;;;;;;-0.24;64.22;100177.47;5004882;28;97114;-73
2023/12/05 04:55:27;;;;;;;22.20;12.73;;;;;;;-0.22;64.21;100196.03;5005690;28;99693;-73
2023/12/05 04:57:52;;;;;;;17.27;11.40;;;;;;;-0.20;64.38;100178.06;5006204;28;99126;-73
2023/12/05 05:00:18;;;;;;;16.17;10.63;;;;;;;-0.20;64.41;100166.44;5009130;28;105494;-74
2023/12/05 05:02:43;;;;;;;20.67;11.63;;;;;;;-0.35;64.10;100165.53;5008524;28;96725;-72
2023/12/05 05:05:11;;;;;;;22.53;12.83;;;;;;;-0.22;64.25;100183.19;5006090;28;97509;-73
2023/12/05 05:07:37;;;;;;;16.90;11.13;;;;;;;-0.21;64.32;100176.56;5006772;28;97209;-74
2023/12/05 05:10:02;;;;;;;20.10;11.47;;;;;;;-0.23;64.30;100178.22;5006970;28;96930;-73
2023/12/05 05:12:28;;;;;;;19.97;11.73;;;;;;;-0.23;64.29;100173.53;5010358;27;97582;-73
2023/12/05 05:14:53;;;;;;;16.90;10.53;;;;;;;-0.24;64.28;100172.03;5004457;28;96868;-73
2023/12/05 05:17:18;;;;;;;22.13;12.50;;;;;;;-0.24;64.43;100168.53;5008396;28;111782;-73
2023/12/05 05:19:44;;;;;;;18.03;12.07;;;;;;;-0.27;64.38;100181.09;5006092;28;98092;-73
2023/12/05 05:22:09;;;;;;;15.93;10.50;;;;;;;-0.26;64.12;100165.53;5006708;28;97086;-73
2023/12/05 05:24:35;;;;;;;20.07;11.83;;;;;;;-0.26;64.53;100168.25;5007329;28;100855;-73
2023/12/05 05:27:00;;;;;;;19.10;11.47;;;;;;;-0.29;64.39;100166.44;5005763;28;99289;-73
2023/12/05 05:29:25;;;;;;;20.80;12.80;;;;;;;-0.29;64.34;100175.34;5008370;28;97118;-73
2023/12/05 05:31:51;;;;;;;19.60;10.90;;;;;;;-0.31;64.17;100166.88;5007679;28;96719;-72
2023/12/05 05:34:16;;;;;;;18.40;12.57;;;;;;;-0.32;64.46;100170.81;5007019;27;97328;-73
2023/12/05 05:36:41;;;;;;;21.97;12.60;;;;;;;-0.32;64.39;100170.06;5008550;28;96975;-73
2023/12/05 05:39:07;;;;;;;20.87;12.37;;;;;;;-0.34;64.40;100162.38;5009735;28;97166;-73
2023/12/05 05:41:32;;;;;;;19.23;12.10;;;;;;;-0.33;64.33;100166.59;5004905;28;97001;-72
2023/12/05 05:43:57;;;;;;;18.70;11.93;;;;;;;-0.30;64.52;100162.97;5005269;28;97300;-72
2023/12/05 05:46:23;;;;;;;18.47;12.10;;;;;;;-0.27;64.38;100169.47;5008458;28;97328;-72
2023/12/05 05:48:48;;;;;;;20.57;12.20;;;;;;;-0.27;64.18;100172.94;5005364;28;97321;-73
2023/12/05 05:51:15;;;;;;;22.17;12.83;;;;;;;-0.28;64.52;100168.69;5007102;28;97006;-73
2023/12/05 05:53:40;;;;;;;22.00;12.70;;;;;;;-0.27;64.29;100166.75;5010911;28;97590;-73
2023/12/05 05:56:06;;;;;;;24.03;12.13;;;;;;;-0.26;64.29;100166.28;5007291;28;97311;-73
2023/12/05 05:58:31;;;;;;;21.70;13.27;;;;;;;-0.25;64.39;100165.09;5006880;28;97105;-73
2023/12/05 06:00:56;;;;;;;18.10;11.93;;;;;;;-0.24;64.05;100165.81;5008714;28;97079;-73
2023/12/05 06:03:23;;;;;;;23.30;13.03;;;;;;;-0.27;64.23;100174.91;5007794;28;97129;-73
2023/12/05 06:05:48;;;;;;;19.67;11.63;;;;;;;-0.28;64.37;100165.97;5007328;28;96989;-74
2023/12/05 06:08:13;;;;;;;22.20;13.33;;;;;;;-0.28;64.46;100176.09;5007374;28;97408;-73
2023/12/05 06:10:40;;;;;;;19.80;12.60;;;;;;;-0.25;64.31;100165.09;5006772;28;96990;-74
2023/12/05 06:13:05;;;;;;;23.40;13.47;;;;;;;-0.28;64.42;100165.22;5007337;27;97676;-73
2023/12/05 06:15:30;;;;;;;18.90;12.13;;;;;;;-0.27;64.17;100161.31;5005356;28;102176;-72
2023/12/05 06:17:57;;;;;;;23.30;13.40;;;;;;;-0.27;64.57;100155.88;5008558;28;98425;-73
2023/12/05 06:20:22;;;;;;;22.47;12.33;;;;;;;-0.26;64.44;100168.25;5005508;28;97037;-73
2023/12/05 06:22:48;;;;;;;24.00;13.30;;;;;;;-0.25;64.50;100156.19;5006377;28;96921;-73
2023/12/05 06:25:13;;;;;;;23.60;14.00;;;;;;;-0.27;64.41;100161.31;5006143;28;105269;-73
2023/12/05 06:27:39;;;;;;;20.13;13.03;;;;;;;-0.27;64.37;100166.75;5007520;28;97286;-72
2023/12/05 06:30:05;;;;;;;21.20;12.20;;;;;;;-0.28;64.38;100167.94;5006928;28;97498;-73
2023/12/05 06:32:30;;;;;;;21.80;13.40;;;;;;;-0.29;64.41;100161.00;5010149;28;97530;-73
2023/12/05 06:34:55;;;;;;;21.70;13.17;;;;;;;-0.29;64.52;100163.72;5005919;28;100388;-72
2023/12/05 06:37:21;;;;;;;20.70;12.93;;;;;;;-0.28;64.58;100170.66;5006385;28;99400;-73
2023/12/05 06:39:46;;;;;;;19.93;11.80;;;;;;;-0.25;64.49;100167.81;5005898;28;99796;-74
2023/12/05 06:42:11;;;;;;;22.57;13.47;;;;;;;-0.23;64.58;100181.69;5007629;28;97716;-72
2023/12/05 06:44:37;;;;;;;25.97;14.47;;;;;;;-0.23;64.47;100172.78;5005843;28;102986;-73
2023/12/05 06:47:02;;;;;;;23.50;13.00;;;;;;;-0.22;64.40;100185.91;5006008;28;103471;-73
2023/12/05 06:49:28;;;;;;;22.73;13.80;;;;;;;-0.18;64.30;100177.63;5003986;28;100926;-73
2023/12/05 06:51:57;;;;;;;24.50;13.57;;;;;;;-0.20;64.18;100174.59;5005093;28;99480;-73
2023/12/05 06:54:22;;;;;;;25.47;14.30;;;;;;;-0.22;64.31;100175.03;5006008;28;97342;-73
2023/12/05 06:56:47;;;;;;;23.43;13.87;;;;;;;-0.21;64.42;100178.53;5004258;28;97397;-73
2023/12/05 06:59:14;;;;;;;22.77;13.00;;;;;;;-0.21;64.21;100179.28;5011338;28;97126;-73
2023/12/05 07:01:39;;;;;;;24.70;13.33;;;;;;;-0.22;64.41;100185.91;5006489;28;99121;-74
2023/12/05 07:04:05;;;;;;;24.13;14.07;;;;;;;-0.20;64.44;100186.22;5006391;28;97512;-73
2023/12/05 07:06:31;;;;;;;22.27;13.17;;;;;;;-0.17;64.41;100174.44;5004600;28;113526;-73
2023/12/05 07:08:56;;;;;;;23.97;13.97;;;;;;;-0.18;64.26;100180.34;5004416;28;97490;-73
2023/12/05 07:11:25;;;;;;;23.67;12.70;;;;;;;-0.17;64.31;100173.69;5004528;28;97302;-73
2023/12/05 07:13:50;;;;;;;20.83;12.27;;;;;;;-0.13;64.44;100177.00;5005312;28;97228;-73
2023/12/05 07:16:16;;;;;;;23.77;13.53;;;;;;;-0.14;64.45;100172.78;5007880;28;105547;-74
2023/12/05 07:18:41;;;;;;;21.70;12.30;;;;;;;-0.16;64.54;100172.47;5007275;28;97999;-72
2023/12/05 07:21:08;;;;;;;22.53;14.10;;;;;;;-0.20;64.43;100185.47;5003662;28;97359;-73
2023/12/05 07:23:33;;;;;;;23.80;13.13;;;;;;;-0.16;64.34;100183.34;5004937;28;98440;-73
2023/12/05 07:25:58;;;;;;;25.27;14.10;;;;;;;-0.16;64.34;100175.19;5004965;28;97347;-73
2023/12/05 07:28:24;;;;;;;27.73;15.77;;;;;;;-0.17;64.41;100170.97;5006655;28;97128;-73
2023/12/05 07:30:49;;;;;;;27.67;14.80;;;;;;;-0.13;64.38;100182.44;5004786;28;96977;-73
2023/12/05 07:33:14;;;;;;;25.80;14.83;;;;;;;-0.12;64.32;100182.00;5006284;28;98885;-74
2023/12/05 07:35:40;;;;;;;26.30;15.70;;;;;;;-0.13;64.36;100187.88;5004927;28;97504;-73
2023/12/05 07:38:06;;;;;;;26.13;15.07;;;;;;;-0.16;64.49;100205.84;5006718;28;97196;-74
2023/12/05 07:40:32;;;;;;;24.07;14.67;;;;;;;-0.13;64.29;100198.75;5010997;28;98956;-73
2023/12/05 07:42:57;;;;;;;33.50;16.47;;;;;;;-0.15;64.14;100193.78;5007103;28;99237;-74
2023/12/05 07:45:23;;;;;;;24.93;15.13;;;;;;;-0.20;64.22;100194.38;5007762;28;104580;-73
2023/12/05 07:47:48;;;;;;;26.73;15.77;;;;;;;-0.18;64.47;100204.81;5007937;28;96994;-73
2023/12/05 07:50:13;;;;;;;24.30;14.70;;;;;;;-0.18;64.61;100197.38;5009090;28;96776;-73
2023/12/05 07:52:39;;;;;;;21.70;13.40;;;;;;;-0.18;64.72;100196.66;5007728;28;97814;-73
2023/12/05 07:55:05;;;;;;;24.73;14.73;;;;;;;-0.17;64.41;100206.31;5008754;28;97609;-73
2023/12/05 07:57:30;;;;;;;25.50;14.30;;;;;;;-0.15;64.52;100201.16;5009400;28;97323;-72
2023/12/05 07:59:56;;;;;;;25.57;15.60;;;;;;;-0.12;64.61;100197.53;5008418;28;96882;-73
2023/12/05 08:02:21;;;;;;;24.10;15.50;;;;;;;-0.10;64.57;100201.31;5007068;28;101462;-73
2023/12/05 08:04:47;;;;;;;28.00;16.17;;;;;;;-0.11;64.55;100207.97;5009472;28;97177;-74
2023/12/05 08:07:12;;;;;;;29.27;15.50;;;;;;;-0.09;64.65;100208.25;5006978;28;98267;-73
2023/12/05 08:09:39;;;;;;;21.90;13.70;;;;;;;-0.06;64.45;100210.09;5008011;28;97260;-74
2023/12/05 08:12:05;;;;;;;22.37;14.57;;;;;;;-0.05;64.64;100208.13;5007842;28;98312;-74
2023/12/05 08:14:30;;;;;;;24.90;14.47;;;;;;;-0.01;64.40;100200.56;5006804;28;97240;-74
2023/12/05 08:16:55;;;;;;;25.00;14.97;;;;;;;0.02;64.38;100202.34;5008592;28;97247;-74
2023/12/05 08:19:21;;;;;;;26.10;15.33;;;;;;;-0.02;64.43;100213.41;5007522;28;97145;-74
2023/12/05 08:21:46;;;;;;;26.80;15.70;;;;;;;-0.03;64.48;100224.75;5006987;28;97141;-73
2023/12/05 08:24:11;;;;;;;29.20;16.83;;;;;;;-0.02;64.53;100220.78;5006913;28;99735;-74
2023/12/05 08:26:37;;;;;;;28.50;16.70;;;;;;;-0.01;64.51;100219.59;5007659;28;97160;-73
2023/12/05 08:29:02;;;;;;;26.17;15.60;;;;;;;-0.01;64.41;100214.91;5008544;28;97857;-73
2023/12/05 08:31:27;;;;;;;28.20;16.00;;;;;;;-0.02;64.35;100209.91;5009163;28;106902;-73
2023/12/05 08:33:53;;;;;;;26.03;15.60;;;;;;;-0.03;64.57;100211.88;5005531;28;98962;-73
2023/12/05 08:36:19;;;;;;;26.80;16.13;;;;;;;0.00;64.32;100216.41;5004852;28;97023;-74
2023/12/05 08:38:44;;;;;;;27.10;15.37;;;;;;;0.01;64.53;100215.22;5012400;28;97331;-74
2023/12/05 08:41:16;;;;;;;26.30;14.70;;;;;;;0.02;64.58;100216.72;5008116;28;97621;-73
2023/12/05 08:43:41;;;;;;;23.30;15.07;;;;;;;0.04;64.65;100221.69;5006410;28;97107;-74
2023/12/05 08:46:07;;;;;;;26.17;15.50;;;;;;;0.07;64.65;100212.63;5009785;28;97015;-74
2023/12/05 08:48:32;;;;;;;26.03;15.53;;;;;;;0.11;64.46;100214.00;5009559;27;96789;-73
2023/12/05 08:50:58;;;;;;;22.83;14.80;;;;;;;0.13;64.60;100232.56;5004939;28;100052;-73
2023/12/05 08:53:23;;;;;;;21.70;13.77;;;;;;;0.12;64.39;100217.47;5007383;28;97318;-73
2023/12/05 08:55:48;;;;;;;31.90;16.47;;;;;;;0.10;64.62;100223.34;5005505;28;97301;-73
2023/12/05 08:58:14;;;;;;;24.57;14.70;;;;;;;0.13;64.39;100221.69;5006277;28;97150;-73
2023/12/05 09:00:39;;;;;;;26.67;15.87;;;;;;;0.17;64.50;100225.75;5005803;28;97351;-73
2023/12/05 09:03:04;;;;;;;21.77;13.87;;;;;;;0.23;64.31;100220.47;5006092;28;98351;-74
2023/12/05 09:05:30;;;;;;;25.10;15.20;;;;;;;0.19;64.44;100228.78;5005315;28;97023;-73
2023/12/05 09:07:56;;;;;;;25.53;15.43;;;;;;;0.21;64.32;100239.22;5007887;28;97588;-73
2023/12/05 09:10:21;;;;;;;24.73;15.07;;;;;;;0.22;64.56;100227.13;5003449;28;97389;-74
2023/12/05 09:12:47;;;;;;;25.70;14.60;;;;;;;0.24;64.50;100232.88;5009316;28;98874;-74
2023/12/05 09:15:12;;;;;;;24.43;14.90;;;;;;;0.27;64.71;100234.69;5006688;28;97138;-73
2023/12/05 09:17:37;;;;;;;26.03;15.40;;;;;;;0.26;64.65;100233.91;5007376;28;96884;-73
2023/12/05 09:20:04;;;;;;;26.33;15.63;;;;;;;0.22;64.66;100246.94;5005246;28;103628;-74
2023/12/05 09:22:29;;;;;;;26.03;16.37;;;;;;;0.25;64.49;100237.09;5005575;28;97456;-73
2023/12/05 09:24:54;;;;;;;26.20;14.73;;;;;;;0.31;64.51;100238.00;5008602;28;96669;-73
2023/12/05 09:27:20;;;;;;;26.50;16.00;;;;;;;0.35;64.69;100237.81;5008469;27;97377;-73
2023/12/05 09:29:46;;;;;;;26.13;15.53;;;;;;;0.37;64.36;100243.59;5006292;28;98736;-74
2023/12/05 09:32:11;;;;;;;26.50;15.87;;;;;;;0.42;64.61;100241.00;5005425;28;99197;-73
2023/12/05 09:34:36;;;;;;;26.07;16.10;;;;;;;0.46;64.46;100238.13;5007631;28;96928;-73
2023/12/05 09:37:02;;;;;;;24.20;15.33;;;;;;;0.48;64.43;100241.91;5008623;28;97561;-73
2023/12/05 09:39:29;;;;;;;27.97;16.60;;;;;;;0.45;64.29;100231.19;5006862;28;99446;-74
2023/12/05 09:41:57;;;;;;;29.40;17.10;;;;;;;0.47;64.25;100239.63;5006913;28;97100;-74
2023/12/05 09:44:25;;;;;;;25.90;15.10;;;;;;;0.49;64.30;100231.78;5006761;28;97177;-74
2023/12/05 09:46:56;;;;;;;27.53;15.50;;;;;;;0.49;64.38;100237.22;5006865;28;97308;-73
2023/12/05 09:49:26;;;;;;;25.67;14.60;;;;;;;0.50;64.24;100255.06;5005878;28;101322;-74
2023/12/05 09:51:53;;;;;;;24.83;14.73;;;;;;;0.49;64.49;100240.69;5006483;28;97823;-73
2023/12/05 09:54:18;;;;;;;27.50;15.60;;;;;;;0.47;64.63;100234.97;5005914;27;97179;-73
2023/12/05 09:56:44;;;;;;;24.57;14.17;;;;;;;0.49;64.74;100248.09;5007749;28;97529;-73
2023/12/05 09:59:10;;;;;;;25.57;14.80;;;;;;;0.52;64.45;100228.88;5011349;27;99529;-73
2023/12/05 10:01:36;;;;;;;24.57;15.10;;;;;;;0.48;64.57;100231.00;5003892;28;100446;-73
2023/12/05 10:04:02;;;;;;;25.30;14.47;;;;;;;0.46;64.47;100233.44;5010280;28;96863;-73
2023/12/05 10:06:30;;;;;;;27.13;14.63;;;;;;;0.44;64.56;100229.66;5006523;28;97200;-74
2023/12/05 10:08:56;;;;;;;26.87;15.00;;;;;;;0.44;64.52;100237.81;5001118;28;100155;-74
2023/12/05 10:11:27;;;;;;;26.60;15.10;;;;;;;0.43;64.67;100228.91;5005421;28;97223;-74
2023/12/05 10:13:53;;;;;;;21.67;12.80;;;;;;;0.44;64.77;100224.22;5004667;28;96677;-73
2023/12/05 10:16:21;;;;;;;24.00;14.17;;;;;;;0.50;64.67;100217.69;5003219;28;98292;-74
2023/12/05 10:18:46;;;;;;;24.83;13.60;;;;;;;0.56;64.71;100220.56;5007453;28;99132;-73
2023/12/05 10:21:12;;;;;;;24.57;14.40;;;;;;;0.59;64.41;100216.91;5005286;28;100060;-73
2023/12/05 10:23:38;;;;;;;22.67;13.17;;;;;;;0.61;64.51;100226.13;5008334;28;96718;-73
2023/12/05 10:26:04;;;;;;;25.60;14.10;;;;;;;0.60;64.55;100226.59;5011924;28;97033;-73
2023/12/05 10:28:29;;;;;;;21.50;13.50;;;;;;;0.63;64.66;100215.53;5004470;28;97817;-74
2023/12/05 10:30:55;;;;;;;21.97;13.20;;;;;;;0.69;64.76;100210.25;5005432;28;108522;-74
2023/12/05 10:33:21;;;;;;;26.00;14.20;;;;;;;0.73;64.58;100225.22;5007603;28;97337;-74
2023/12/05 10:35:47;;;;;;;24.23;13.70;;;;;;;0.78;64.68;100219.13;5005685;28;97511;-73
2023/12/05 10:38:17;;;;;;;25.07;14.30;;;;;;;0.81;64.53;100222.91;5003264;28;98963;-74
2023/12/05 10:40:50;;;;;;;28.50;14.10;;;;;;;0.82;64.41;100225.19;5006365;28;98664;-74
2023/12/05 10:43:17;;;;;;;25.97;14.10;;;;;;;0.81;64.41;100215.50;5005877;28;97179;-73
2023/12/05 10:45:43;;;;;;;21.90;13.03;;;;;;;0.82;64.44;100217.00;5006312;28;97127;-73
2023/12/05 10:48:10;;;;;;;23.63;13.83;;;;;;;0.85;64.87;100220.75;5005967;28;97509;-73
2023/12/05 10:50:35;;;;;;;21.50;12.37;;;;;;;0.87;64.33;100223.78;5011330;28;99040;-73
2023/12/05 10:53:01;;;;;;;21.20;13.20;;;;;;;0.91;64.46;100222.41;5005970;28;96709;-74
2023/12/05 10:55:26;;;;;;;22.93;13.50;;;;;;;0.90;64.55;100214.69;5004485;28;103032;-74
2023/12/05 10:57:51;;;;;;;26.83;14.57;;;;;;;0.94;64.58;100218.00;5005922;28;97962;-74
2023/12/05 11:00:18;;;;;;;21.10;13.07;;;;;;;0.91;64.40;100216.94;5005406;28;99374;-74
2023/12/05 11:02:45;;;;;;;25.33;14.30;;;;;;;0.90;64.53;100201.84;5005281;28;97089;-73
2023/12/05 11:05:12;;;;;;;24.47;13.93;;;;;;;0.93;64.30;100221.97;5020834;27;97751;-74